Currently 51°F in Moreno Valley, California, USA
51°F
63°F / 51°F
calm
0.00"
Tuesday, January 19, 2021 10:31 PM PST

Moreno Valley, California Weather Summary
Last 36 Hours

Temperature Winds Hourly Humidity Dewpoint
Time Report Norm Report Norm Max Gusts Precip. Rpt. Norm Rpt. Norm Pressure
1Tue 10:31 PM  50.8°F  53°F  calm  2 mph  none  0.00"  66%  60%  39°F  39°F  29.88"
3Tue 10:29 PM  50.7°F  53°F  calm  2 mph  none  ----  66%  60%  39°F  39°F  29.88"
Tue 10:00 PM  51.4°F  53°F  calm  1 mph  5 mph  0.00"  65%  60%  39°F  39°F  29.88"
Tue 09:00 PM  53.2°F  55°F  calm  2 mph  7 mph  0.00"  62%  59%  40°F  40°F  29.87"
Tue 08:00 PM  54.0°F  56°F  calm  2 mph  10 mph  0.00"  58%  57%  39°F  40°F  29.85"
Tue 07:00 PM  55.5°F  57°F  5 mph NW  2 mph  29 mph  0.00"  52%  55%  38°F  40°F  29.83"
Tue 06:00 PM  57.2°F  58°F  22 mph E  3 mph  28 mph  0.00"  50%  53%  38°F  41°F  29.81"
Tue 05:00 PM  55.2°F  62°F  11 mph E  3 mph  23 mph  0.00"  55%  48%  39°F  41°F  29.82"
Tue 04:00 PM  56.2°F  65°F  12 mph E  4 mph  30 mph  0.00"  52%  43%  38°F  42°F  29.81"
Tue 03:00 PM  56.0°F  67°F  13 mph E  5 mph  33 mph  0.00"  53%  42%  39°F  42°F  29.79"
Tue 02:00 PM  57.5°F  67°F  21 mph E  4 mph  36 mph  0.00"  40%  41%  32°F  42°F  29.77"
Tue 01:00 PM  61.2°F  67°F  16 mph SE  4 mph  31 mph  0.00"  28%  42%  27°F  42°F  29.76"
2Tue 12:19 PM  63.1°F  66°F  19 mph E  4 mph  31 mph  ----  26%  43%  26°F  42°F  29.75"
Tue 12:00 PM  61.5°F  65°F  13 mph E  4 mph  33 mph  0.00"  27%  44%  25°F  42°F  29.76"
Tue 11:00 AM  61.7°F  63°F  5 mph E  4 mph  23 mph  0.00"  26%  47%  25°F  42°F  29.75"
Tue 10:00 AM  58.0°F  61°F  calm  3 mph  12 mph  0.00"  32%  51%  27°F  42°F  29.75"
Tue 09:00 AM  56.0°F  58°F  calm  2 mph  9 mph  0.00"  34%  55%  27°F  41°F  29.72"
Tue 08:00 AM  57.2°F  54°F  4 mph S  2 mph  14 mph  0.00"  29%  61%  24°F  40°F  29.69"
Tue 07:00 AM  56.5°F  50°F  2 mph E  2 mph  28 mph  0.00"  29%  62%  23°F  37°F  29.66"
Tue 06:00 AM  57.2°F  50°F  10 mph E  2 mph  23 mph  0.00"  28%  62%  23°F  37°F  29.65"
Tue 05:00 AM  58.0°F  51°F  2 mph NE  1 mph  14 mph  0.00"  28%  62%  24°F  38°F  29.65"
Tue 04:00 AM  53.4°F  51°F  3 mph SE  2 mph  6 mph  0.00"  42%  62%  30°F  38°F  29.65"
Tue 03:00 AM  52.2°F  51°F  calm  2 mph  13 mph  0.00"  56%  61%  36°F  38°F  29.67"
Tue 02:00 AM  62.0°F  52°F  6 mph NE  2 mph  11 mph  0.00"  28%  62%  27°F  38°F  29.67"
Tue 01:00 AM  56.4°F  52°F  calm  1 mph  6 mph  0.00"  40%  61%  32°F  39°F  29.68"
Tue 12:00 AM  61.1°F  52°F  calm  1 mph  8 mph  0.00"  34%  61%  31°F  39°F  29.68"
Mon 11:00 PM  59.8°F  53°F  calm  1 mph  3 mph  0.00"  35%  60%  31°F  39°F  29.69"
Mon 10:00 PM  60.7°F  53°F  calm  1 mph  3 mph  0.00"  36%  60%  33°F  39°F  29.70"
Mon 09:00 PM  63.8°F  54°F  calm  2 mph  8 mph  0.00"  31%  58%  32°F  39°F  29.71"
Mon 08:00 PM  64.8°F  55°F  3 mph NE  2 mph  10 mph  0.00"  31%  57%  32°F  40°F  29.71"
Mon 07:00 PM  66.0°F  57°F  3 mph NE  2 mph  11 mph  0.00"  30%  55%  33°F  40°F  29.70"
Mon 06:00 PM  67.9°F  58°F  6 mph SE  3 mph  13 mph  0.00"  29%  53%  33°F  40°F  29.70"
Mon 05:00 PM  70.5°F  62°F  4 mph SE  2 mph  18 mph  0.00"  29%  48%  35°F  41°F  29.71"
Mon 04:00 PM  74.2°F  65°F  11 mph S  4 mph  19 mph  0.00"  26%  43%  35°F  42°F  29.71"
Mon 03:00 PM  76.3°F  67°F  7 mph SE  5 mph  18 mph  0.00"  24%  41%  35°F  42°F  29.71"
Mon 02:00 PM  80.1°F  67°F  4 mph NW  4 mph  7 mph  0.00"  19%  41%  33°F  42°F  29.72"
Mon 01:00 PM  78.6°F  67°F  4 mph SW  4 mph  12 mph  0.00"  20%  42%  33°F  42°F  29.75"
Mon 12:00 PM  76.5°F  65°F  6 mph SW  4 mph  10 mph  0.00"  22%  44%  33°F  42°F  29.79"
Mon 11:00 AM  74.6°F  63°F  calm  4 mph  12 mph  0.00"  21%  47%  31°F  42°F  29.83"

  1. Current weather data. No green row appears if the current weather data is also the high or low for the current day.
  2. High temperature for the current day.
  3. Low temperature for the current day.

The Moreno Valley, California weather pages are a service of WeatherCurrents. Moreno Valley is located in Southern California's Inland Empire, east of Riverside and north of Perris, along the State Route 60 freeway.
Copyright ©2021  WeatherCurrents. All rights reserved. - Submit questions and comments - Privacy Policy

This page automatically refreshes every 10 minutes.